sensor_id;sensor_type;location;lat;lon;timestamp;temperature;humidity
22185;DHT22;11258;52.516;13.318;2022-09-27T00:02:13;13.60;99.90
22185;DHT22;11258;52.516;13.318;2022-09-27T00:04:38;13.50;99.90
22185;DHT22;11258;52.516;13.318;2022-09-27T00:07:04;13.50;99.90
22185;DHT22;11258;52.516;13.318;2022-09-27T00:09:30;13.50;99.90
22185;DHT22;11258;52.516;13.318;2022-09-27T00:11:56;13.50;99.90
22185;DHT22;11258;52.516;13.318;2022-09-27T00:14:21;13.50;99.90
22185;DHT22;11258;52.516;13.318;2022-09-27T00:16:47;13.50;99.90
22185;DHT22;11258;52.516;13.318;2022-09-27T00:19:15;13.50;99.90
22185;DHT22;11258;52.516;13.318;2022-09-27T00:21:42;13.50;99.90
22185;DHT22;11258;52.516;13.318;2022-09-27T00:24:12;13.50;99.90
22185;DHT22;11258;52.516;13.318;2022-09-27T00:26:38;13.50;99.90
22185;DHT22;11258;52.516;13.318;2022-09-27T00:29:03;13.60;99.90
22185;DHT22;11258;52.516;13.318;2022-09-27T00:31:30;13.60;99.90
22185;DHT22;11258;52.516;13.318;2022-09-27T00:33:57;13.60;99.90
22185;DHT22;11258;52.516;13.318;2022-09-27T00:36:24;13.50;99.90
22185;DHT22;11258;52.516;13.318;2022-09-27T00:38:50;13.60;99.90
22185;DHT22;11258;52.516;13.318;2022-09-27T00:41:31;13.60;99.90
22185;DHT22;11258;52.516;13.318;2022-09-27T00:43:59;13.60;99.90
22185;DHT22;11258;52.516;13.318;2022-09-27T00:46:45;13.50;99.90
22185;DHT22;11258;52.516;13.318;2022-09-27T00:51:44;13.50;99.90
22185;DHT22;11258;52.516;13.318;2022-09-27T00:54:13;13.50;99.90
22185;DHT22;11258;52.516;13.318;2022-09-27T00:56:39;13.50;99.90
22185;DHT22;11258;52.516;13.318;2022-09-27T00:59:27;13.50;99.90
22185;DHT22;11258;52.516;13.318;2022-09-27T01:01:55;13.50;99.90
22185;DHT22;11258;52.516;13.318;2022-09-27T01:04:24;13.50;99.90
22185;DHT22;11258;52.516;13.318;2022-09-27T01:06:51;13.50;99.90
22185;DHT22;11258;52.516;13.318;2022-09-27T01:09:16;13.50;99.90
22185;DHT22;11258;52.516;13.318;2022-09-27T01:11:47;13.40;99.90
22185;DHT22;11258;52.516;13.318;2022-09-27T01:14:28;13.40;99.90
22185;DHT22;11258;52.516;13.318;2022-09-27T01:17:25;13.40;99.90
22185;DHT22;11258;52.516;13.318;2022-09-27T01:34:26;13.20;99.90
22185;DHT22;11258;52.516;13.318;2022-09-27T01:42:24;13.20;99.90
22185;DHT22;11258;52.516;13.318;2022-09-27T01:44:53;13.20;99.90
22185;DHT22;11258;52.516;13.318;2022-09-27T01:47:48;13.20;99.90
22185;DHT22;11258;52.516;13.318;2022-09-27T01:50:20;13.20;99.90
22185;DHT22;11258;52.516;13.318;2022-09-27T01:52:54;13.30;99.90
22185;DHT22;11258;52.516;13.318;2022-09-27T01:55:24;13.30;99.90
22185;DHT22;11258;52.516;13.318;2022-09-27T01:58:00;13.20;99.90
22185;DHT22;11258;52.516;13.318;2022-09-27T02:00:27;13.20;99.90
22185;DHT22;11258;52.516;13.318;2022-09-27T02:03:12;13.30;99.90
22185;DHT22;11258;52.516;13.318;2022-09-27T02:05:44;13.20;99.90
22185;DHT22;11258;52.516;13.318;2022-09-27T02:08:26;13.20;99.90
22185;DHT22;11258;52.516;13.318;2022-09-27T02:10:55;13.30;99.90
22185;DHT22;11258;52.516;13.318;2022-09-27T02:13:31;13.30;99.90
22185;DHT22;11258;52.516;13.318;2022-09-27T02:16:21;13.30;99.90
22185;DHT22;11258;52.516;13.318;2022-09-27T02:21:20;13.30;99.90
22185;DHT22;11258;52.516;13.318;2022-09-27T02:23:53;13.30;99.90
22185;DHT22;11258;52.516;13.318;2022-09-27T02:26:40;13.30;99.90
22185;DHT22;11258;52.516;13.318;2022-09-27T02:29:21;13.30;99.90
22185;DHT22;11258;52.516;13.318;2022-09-27T02:31:48;13.30;99.90
22185;DHT22;11258;52.516;13.318;2022-09-27T02:34:21;13.30;99.90
22185;DHT22;11258;52.516;13.318;2022-09-27T02:36:47;13.30;99.90
22185;DHT22;11258;52.516;13.318;2022-09-27T02:39:13;13.30;99.90
22185;DHT22;11258;52.516;13.318;2022-09-27T02:41:39;13.40;99.90
22185;DHT22;11258;52.516;13.318;2022-09-27T02:44:08;13.40;99.90
22185;DHT22;11258;52.516;13.318;2022-09-27T02:47:03;13.30;99.90
22185;DHT22;11258;52.516;13.318;2022-09-27T03:00:18;13.40;99.90
22185;DHT22;11258;52.516;13.318;2022-09-27T03:02:58;13.40;99.90
22185;DHT22;11258;52.516;13.318;2022-09-27T03:05:31;13.40;99.90
22185;DHT22;11258;52.516;13.318;2022-09-27T03:07:58;13.40;99.90
22185;DHT22;11258;52.516;13.318;2022-09-27T03:10:26;13.40;99.90
22185;DHT22;11258;52.516;13.318;2022-09-27T03:12:52;13.40;99.90
22185;DHT22;11258;52.516;13.318;2022-09-27T03:15:19;13.30;99.90
22185;DHT22;11258;52.516;13.318;2022-09-27T03:17:45;13.40;99.90
22185;DHT22;11258;52.516;13.318;2022-09-27T03:20:11;13.30;99.90
22185;DHT22;11258;52.516;13.318;2022-09-27T03:22:36;13.30;99.90
22185;DHT22;11258;52.516;13.318;2022-09-27T03:25:03;13.40;99.90
22185;DHT22;11258;52.516;13.318;2022-09-27T03:27:29;13.40;99.90
22185;DHT22;11258;52.516;13.318;2022-09-27T03:29:55;13.40;99.90
22185;DHT22;11258;52.516;13.318;2022-09-27T03:32:21;13.30;99.90
22185;DHT22;11258;52.516;13.318;2022-09-27T03:34:46;13.40;99.90
22185;DHT22;11258;52.516;13.318;2022-09-27T03:37:12;13.40;99.90
22185;DHT22;11258;52.516;13.318;2022-09-27T03:39:37;13.30;99.90
22185;DHT22;11258;52.516;13.318;2022-09-27T03:42:03;13.30;99.90
22185;DHT22;11258;52.516;13.318;2022-09-27T03:44:28;13.40;99.90
22185;DHT22;11258;52.516;13.318;2022-09-27T03:46:54;13.30;99.90
22185;DHT22;11258;52.516;13.318;2022-09-27T03:49:20;13.30;99.90
22185;DHT22;11258;52.516;13.318;2022-09-27T03:51:45;13.30;99.90
22185;DHT22;11258;52.516;13.318;2022-09-27T03:54:11;13.30;99.90
22185;DHT22;11258;52.516;13.318;2022-09-27T03:56:36;13.30;99.90
22185;DHT22;11258;52.516;13.318;2022-09-27T03:59:02;13.30;99.90
22185;DHT22;11258;52.516;13.318;2022-09-27T04:01:28;13.10;99.90
22185;DHT22;11258;52.516;13.318;2022-09-27T04:03:53;13.10;99.90
22185;DHT22;11258;52.516;13.318;2022-09-27T04:06:19;13.10;99.90
22185;DHT22;11258;52.516;13.318;2022-09-27T04:08:45;13.10;99.90
22185;DHT22;11258;52.516;13.318;2022-09-27T04:11:11;13.10;99.90
22185;DHT22;11258;52.516;13.318;2022-09-27T04:13:37;13.10;99.90
22185;DHT22;11258;52.516;13.318;2022-09-27T04:16:03;13.00;99.90
22185;DHT22;11258;52.516;13.318;2022-09-27T04:18:28;13.00;99.90
22185;DHT22;11258;52.516;13.318;2022-09-27T04:20:54;12.90;99.90
22185;DHT22;11258;52.516;13.318;2022-09-27T04:23:19;12.90;99.90
22185;DHT22;11258;52.516;13.318;2022-09-27T04:25:46;12.90;99.90
22185;DHT22;11258;52.516;13.318;2022-09-27T04:28:11;12.90;99.90
22185;DHT22;11258;52.516;13.318;2022-09-27T04:30:37;12.90;99.90
22185;DHT22;11258;52.516;13.318;2022-09-27T04:33:03;13.00;99.90
22185;DHT22;11258;52.516;13.318;2022-09-27T04:35:29;13.00;99.90
22185;DHT22;11258;52.516;13.318;2022-09-27T04:38:13;13.00;99.90
22185;DHT22;11258;52.516;13.318;2022-09-27T04:40:39;12.90;99.90
22185;DHT22;11258;52.516;13.318;2022-09-27T04:43:06;12.90;99.90
22185;DHT22;11258;52.516;13.318;2022-09-27T04:45:32;12.80;99.90
22185;DHT22;11258;52.516;13.318;2022-09-27T04:47:57;12.80;99.90
22185;DHT22;11258;52.516;13.318;2022-09-27T04:50:23;12.80;99.90
22185;DHT22;11258;52.516;13.318;2022-09-27T04:52:50;12.80;99.90
22185;DHT22;11258;52.516;13.318;2022-09-27T04:55:16;12.70;99.90
22185;DHT22;11258;52.516;13.318;2022-09-27T04:57:42;12.70;99.90
22185;DHT22;11258;52.516;13.318;2022-09-27T05:00:08;12.70;99.90
22185;DHT22;11258;52.516;13.318;2022-09-27T05:02:34;12.60;99.90
22185;DHT22;11258;52.516;13.318;2022-09-27T05:05:00;12.60;99.90
22185;DHT22;11258;52.516;13.318;2022-09-27T05:07:26;12.50;99.90
22185;DHT22;11258;52.516;13.318;2022-09-27T05:09:52;12.50;99.90
22185;DHT22;11258;52.516;13.318;2022-09-27T05:12:19;12.50;99.90
22185;DHT22;11258;52.516;13.318;2022-09-27T05:14:44;12.60;99.90
22185;DHT22;11258;52.516;13.318;2022-09-27T05:17:10;12.60;99.90
22185;DHT22;11258;52.516;13.318;2022-09-27T05:19:36;12.50;99.90
22185;DHT22;11258;52.516;13.318;2022-09-27T05:22:06;12.50;99.90
22185;DHT22;11258;52.516;13.318;2022-09-27T05:24:32;12.50;99.90
22185;DHT22;11258;52.516;13.318;2022-09-27T05:26:59;12.50;99.90
22185;DHT22;11258;52.516;13.318;2022-09-27T05:29:24;12.50;99.90
22185;DHT22;11258;52.516;13.318;2022-09-27T05:31:50;12.50;99.90
22185;DHT22;11258;52.516;13.318;2022-09-27T05:34:16;12.50;99.90
22185;DHT22;11258;52.516;13.318;2022-09-27T05:36:42;12.50;99.90
22185;DHT22;11258;52.516;13.318;2022-09-27T05:39:08;12.40;99.90
22185;DHT22;11258;52.516;13.318;2022-09-27T05:41:33;12.40;99.90
22185;DHT22;11258;52.516;13.318;2022-09-27T05:43:59;12.40;99.90
22185;DHT22;11258;52.516;13.318;2022-09-27T05:46:25;12.40;99.90
22185;DHT22;11258;52.516;13.318;2022-09-27T05:48:51;12.40;99.90
22185;DHT22;11258;52.516;13.318;2022-09-27T05:51:16;12.30;99.90
22185;DHT22;11258;52.516;13.318;2022-09-27T05:53:43;12.40;99.90
22185;DHT22;11258;52.516;13.318;2022-09-27T05:56:09;12.40;99.90
22185;DHT22;11258;52.516;13.318;2022-09-27T05:58:34;12.30;99.90
22185;DHT22;11258;52.516;13.318;2022-09-27T06:01:00;12.30;99.90
22185;DHT22;11258;52.516;13.318;2022-09-27T06:03:25;12.30;99.90
22185;DHT22;11258;52.516;13.318;2022-09-27T06:05:51;12.30;99.90
22185;DHT22;11258;52.516;13.318;2022-09-27T06:08:17;12.20;99.90
22185;DHT22;11258;52.516;13.318;2022-09-27T06:10:44;12.20;99.90
22185;DHT22;11258;52.516;13.318;2022-09-27T06:13:12;12.30;99.90
22185;DHT22;11258;52.516;13.318;2022-09-27T06:15:40;12.20;99.90
22185;DHT22;11258;52.516;13.318;2022-09-27T06:18:13;12.30;99.90
22185;DHT22;11258;52.516;13.318;2022-09-27T06:20:41;12.30;99.90
22185;DHT22;11258;52.516;13.318;2022-09-27T06:23:12;12.30;99.90
22185;DHT22;11258;52.516;13.318;2022-09-27T06:25:39;12.30;99.90
22185;DHT22;11258;52.516;13.318;2022-09-27T06:28:04;12.30;99.90
22185;DHT22;11258;52.516;13.318;2022-09-27T06:30:30;12.30;99.90
22185;DHT22;11258;52.516;13.318;2022-09-27T06:33:01;12.30;99.90
22185;DHT22;11258;52.516;13.318;2022-09-27T06:35:28;12.30;99.90
22185;DHT22;11258;52.516;13.318;2022-09-27T06:37:53;12.30;99.90
22185;DHT22;11258;52.516;13.318;2022-09-27T06:40:21;12.30;99.90
22185;DHT22;11258;52.516;13.318;2022-09-27T06:42:47;12.30;99.90
22185;DHT22;11258;52.516;13.318;2022-09-27T06:45:14;12.40;99.90
22185;DHT22;11258;52.516;13.318;2022-09-27T06:47:40;12.40;99.90
22185;DHT22;11258;52.516;13.318;2022-09-27T06:50:05;12.40;99.90
22185;DHT22;11258;52.516;13.318;2022-09-27T06:52:32;12.40;99.90
22185;DHT22;11258;52.516;13.318;2022-09-27T06:54:58;12.30;99.90
22185;DHT22;11258;52.516;13.318;2022-09-27T06:57:23;12.30;99.90
22185;DHT22;11258;52.516;13.318;2022-09-27T07:00:09;12.30;99.90
22185;DHT22;11258;52.516;13.318;2022-09-27T07:02:56;12.30;99.90
22185;DHT22;11258;52.516;13.318;2022-09-27T07:05:26;12.30;99.90
22185;DHT22;11258;52.516;13.318;2022-09-27T07:07:51;12.30;99.90
22185;DHT22;11258;52.516;13.318;2022-09-27T07:10:25;12.40;99.90
22185;DHT22;11258;52.516;13.318;2022-09-27T07:12:51;12.40;99.90
22185;DHT22;11258;52.516;13.318;2022-09-27T07:15:18;12.40;99.90
22185;DHT22;11258;52.516;13.318;2022-09-27T07:17:46;12.40;99.90
22185;DHT22;11258;52.516;13.318;2022-09-27T07:20:11;12.30;99.90
22185;DHT22;11258;52.516;13.318;2022-09-27T07:22:41;12.40;99.90
22185;DHT22;11258;52.516;13.318;2022-09-27T07:25:10;12.50;99.90
22185;DHT22;11258;52.516;13.318;2022-09-27T07:27:37;12.50;99.90
22185;DHT22;11258;52.516;13.318;2022-09-27T07:30:03;12.50;99.90
22185;DHT22;11258;52.516;13.318;2022-09-27T07:32:31;12.40;99.90
22185;DHT22;11258;52.516;13.318;2022-09-27T07:34:57;12.50;99.90
22185;DHT22;11258;52.516;13.318;2022-09-27T07:37:23;12.40;99.90
22185;DHT22;11258;52.516;13.318;2022-09-27T07:39:48;12.40;99.90
22185;DHT22;11258;52.516;13.318;2022-09-27T07:42:14;12.40;99.90
22185;DHT22;11258;52.516;13.318;2022-09-27T07:44:39;12.50;99.90
22185;DHT22;11258;52.516;13.318;2022-09-27T07:47:08;12.50;99.90
22185;DHT22;11258;52.516;13.318;2022-09-27T07:49:35;12.50;99.90
22185;DHT22;11258;52.516;13.318;2022-09-27T07:52:01;12.50;99.90
22185;DHT22;11258;52.516;13.318;2022-09-27T07:54:27;12.50;99.90
22185;DHT22;11258;52.516;13.318;2022-09-27T07:56:52;12.50;99.90
22185;DHT22;11258;52.516;13.318;2022-09-27T07:59:20;12.60;99.90
22185;DHT22;11258;52.516;13.318;2022-09-27T08:01:45;12.60;99.90
22185;DHT22;11258;52.516;13.318;2022-09-27T08:04:12;12.70;99.90
22185;DHT22;11258;52.516;13.318;2022-09-27T08:06:37;12.60;99.90
22185;DHT22;11258;52.516;13.318;2022-09-27T08:09:06;12.60;99.90
22185;DHT22;11258;52.516;13.318;2022-09-27T08:11:34;12.60;99.90
22185;DHT22;11258;52.516;13.318;2022-09-27T08:14:00;12.60;99.90
22185;DHT22;11258;52.516;13.318;2022-09-27T08:16:26;12.60;99.90
22185;DHT22;11258;52.516;13.318;2022-09-27T08:18:52;12.60;99.90
22185;DHT22;11258;52.516;13.318;2022-09-27T08:21:17;12.60;99.90
22185;DHT22;11258;52.516;13.318;2022-09-27T08:23:43;12.60;99.90
22185;DHT22;11258;52.516;13.318;2022-09-27T08:26:09;12.50;99.90
22185;DHT22;11258;52.516;13.318;2022-09-27T08:28:34;12.60;99.90
22185;DHT22;11258;52.516;13.318;2022-09-27T08:31:00;12.60;99.90
22185;DHT22;11258;52.516;13.318;2022-09-27T08:33:26;12.60;99.90
22185;DHT22;11258;52.516;13.318;2022-09-27T08:35:51;12.60;99.90
22185;DHT22;11258;52.516;13.318;2022-09-27T08:38:17;12.70;99.90
22185;DHT22;11258;52.516;13.318;2022-09-27T08:40:55;12.80;99.90
22185;DHT22;11258;52.516;13.318;2022-09-27T08:46:04;12.80;99.90
22185;DHT22;11258;52.516;13.318;2022-09-27T08:48:31;12.90;99.90
22185;DHT22;11258;52.516;13.318;2022-09-27T08:51:00;12.90;99.90
22185;DHT22;11258;52.516;13.318;2022-09-27T08:53:47;12.90;99.90
22185;DHT22;11258;52.516;13.318;2022-09-27T08:56:16;12.90;99.90
22185;DHT22;11258;52.516;13.318;2022-09-27T09:01:31;12.90;99.90
22185;DHT22;11258;52.516;13.318;2022-09-27T09:03:59;12.90;99.90
22185;DHT22;11258;52.516;13.318;2022-09-27T09:09:36;12.90;99.90
22185;DHT22;11258;52.516;13.318;2022-09-27T09:12:36;12.90;99.90
22185;DHT22;11258;52.516;13.318;2022-09-27T09:18:31;12.90;99.90
22185;DHT22;11258;52.516;13.318;2022-09-27T09:26:51;13.10;99.90
22185;DHT22;11258;52.516;13.318;2022-09-27T09:32:28;13.10;99.90
22185;DHT22;11258;52.516;13.318;2022-09-27T09:35:06;13.10;99.90
22185;DHT22;11258;52.516;13.318;2022-09-27T09:37:38;13.10;99.90
22185;DHT22;11258;52.516;13.318;2022-09-27T09:45:57;13.30;99.90
22185;DHT22;11258;52.516;13.318;2022-09-27T09:48:35;13.30;99.90
22185;DHT22;11258;52.516;13.318;2022-09-27T09:51:04;13.30;99.90
22185;DHT22;11258;52.516;13.318;2022-09-27T09:56:27;13.30;99.90
22185;DHT22;11258;52.516;13.318;2022-09-27T09:58:55;13.20;99.90
22185;DHT22;11258;52.516;13.318;2022-09-27T10:01:42;13.30;99.90
22185;DHT22;11258;52.516;13.318;2022-09-27T10:04:27;13.40;99.90
22185;DHT22;11258;52.516;13.318;2022-09-27T10:06:54;13.60;99.90
22185;DHT22;11258;52.516;13.318;2022-09-27T10:09:24;13.60;99.90
22185;DHT22;11258;52.516;13.318;2022-09-27T10:11:50;13.70;99.90
22185;DHT22;11258;52.516;13.318;2022-09-27T10:14:19;13.70;99.90
22185;DHT22;11258;52.516;13.318;2022-09-27T10:16:47;13.70;99.90
22185;DHT22;11258;52.516;13.318;2022-09-27T10:19:17;13.80;99.90
22185;DHT22;11258;52.516;13.318;2022-09-27T10:21:45;14.00;99.90
22185;DHT22;11258;52.516;13.318;2022-09-27T10:24:14;13.90;99.90
22185;DHT22;11258;52.516;13.318;2022-09-27T10:26:43;13.90;99.90
22185;DHT22;11258;52.516;13.318;2022-09-27T10:31:45;13.90;99.90
22185;DHT22;11258;52.516;13.318;2022-09-27T10:34:29;13.80;99.90
22185;DHT22;11258;52.516;13.318;2022-09-27T10:37:14;13.70;99.90
22185;DHT22;11258;52.516;13.318;2022-09-27T10:39:48;13.80;99.90
22185;DHT22;11258;52.516;13.318;2022-09-27T10:44:56;13.80;99.90
22185;DHT22;11258;52.516;13.318;2022-09-27T10:47:23;13.90;99.90
22185;DHT22;11258;52.516;13.318;2022-09-27T10:49:51;13.90;99.90
22185;DHT22;11258;52.516;13.318;2022-09-27T10:52:21;14.00;99.90
22185;DHT22;11258;52.516;13.318;2022-09-27T10:55:15;14.00;99.90
22185;DHT22;11258;52.516;13.318;2022-09-27T10:57:48;14.20;99.90
22185;DHT22;11258;52.516;13.318;2022-09-27T11:00:29;14.20;99.90
22185;DHT22;11258;52.516;13.318;2022-09-27T11:03:02;14.10;99.90
22185;DHT22;11258;52.516;13.318;2022-09-27T11:05:38;14.00;99.90
22185;DHT22;11258;52.516;13.318;2022-09-27T11:13:39;14.00;99.90
22185;DHT22;11258;52.516;13.318;2022-09-27T11:18:49;14.00;99.90
22185;DHT22;11258;52.516;13.318;2022-09-27T11:24:21;14.10;99.90
22185;DHT22;11258;52.516;13.318;2022-09-27T11:30:07;14.20;99.90
22185;DHT22;11258;52.516;13.318;2022-09-27T11:33:03;14.20;99.90
22185;DHT22;11258;52.516;13.318;2022-09-27T11:36:06;14.20;99.90
22185;DHT22;11258;52.516;13.318;2022-09-27T11:47:13;12.90;99.90
22185;DHT22;11258;52.516;13.318;2022-09-27T11:55:30;12.40;99.90
22185;DHT22;11258;52.516;13.318;2022-09-27T11:58:17;12.60;99.90
22185;DHT22;11258;52.516;13.318;2022-09-27T12:11:40;12.70;99.90
22185;DHT22;11258;52.516;13.318;2022-09-27T12:14:19;12.80;99.90
22185;DHT22;11258;52.516;13.318;2022-09-27T12:16:48;12.80;99.90
22185;DHT22;11258;52.516;13.318;2022-09-27T12:19:28;12.90;99.90
22185;DHT22;11258;52.516;13.318;2022-09-27T12:21:57;12.80;99.90
22185;DHT22;11258;52.516;13.318;2022-09-27T12:24:24;12.70;99.90
22185;DHT22;11258;52.516;13.318;2022-09-27T12:26:53;12.70;99.90
22185;DHT22;11258;52.516;13.318;2022-09-27T12:29:25;12.70;99.90
22185;DHT22;11258;52.516;13.318;2022-09-27T12:34:41;12.70;99.90
22185;DHT22;11258;52.516;13.318;2022-09-27T12:45:53;13.70;99.90
22185;DHT22;11258;52.516;13.318;2022-09-27T12:48:57;13.90;99.90
22185;DHT22;11258;52.516;13.318;2022-09-27T12:59:45;13.60;99.90
22185;DHT22;11258;52.516;13.318;2022-09-27T13:03:17;13.50;99.90
22185;DHT22;11258;52.516;13.318;2022-09-27T13:11:28;13.70;99.90
22185;DHT22;11258;52.516;13.318;2022-09-27T13:13:55;13.60;99.90
22185;DHT22;11258;52.516;13.318;2022-09-27T13:16:24;13.40;99.90
22185;DHT22;11258;52.516;13.318;2022-09-27T13:18:56;13.40;99.90
22185;DHT22;11258;52.516;13.318;2022-09-27T13:24:39;13.80;99.90
22185;DHT22;11258;52.516;13.318;2022-09-27T13:32:38;13.70;99.90
22185;DHT22;11258;52.516;13.318;2022-09-27T13:48:13;13.50;99.90
22185;DHT22;11258;52.516;13.318;2022-09-27T13:50:50;13.40;99.90
22185;DHT22;11258;52.516;13.318;2022-09-27T13:53:27;13.30;99.90
22185;DHT22;11258;52.516;13.318;2022-09-27T13:55:53;13.50;99.90
22185;DHT22;11258;52.516;13.318;2022-09-27T13:58:47;13.40;99.90
22185;DHT22;11258;52.516;13.318;2022-09-27T14:01:21;13.60;99.90
22185;DHT22;11258;52.516;13.318;2022-09-27T14:04:01;13.60;99.90
22185;DHT22;11258;52.516;13.318;2022-09-27T14:06:42;13.60;99.90
22185;DHT22;11258;52.516;13.318;2022-09-27T14:09:19;13.50;99.90
22185;DHT22;11258;52.516;13.318;2022-09-27T14:11:50;13.40;99.90
22185;DHT22;11258;52.516;13.318;2022-09-27T14:14:21;13.30;99.90
22185;DHT22;11258;52.516;13.318;2022-09-27T14:16:48;13.30;99.90
22185;DHT22;11258;52.516;13.318;2022-09-27T14:19:19;13.30;99.90
22185;DHT22;11258;52.516;13.318;2022-09-27T14:21:46;13.20;99.90
22185;DHT22;11258;52.516;13.318;2022-09-27T14:27:20;13.40;99.90
22185;DHT22;11258;52.516;13.318;2022-09-27T14:29:54;13.50;99.90
22185;DHT22;11258;52.516;13.318;2022-09-27T14:32:26;13.30;99.90
22185;DHT22;11258;52.516;13.318;2022-09-27T14:35:09;13.40;99.90
22185;DHT22;11258;52.516;13.318;2022-09-27T14:38:01;13.50;99.90
22185;DHT22;11258;52.516;13.318;2022-09-27T14:40:27;13.50;99.90
22185;DHT22;11258;52.516;13.318;2022-09-27T14:42:58;13.30;99.90
22185;DHT22;11258;52.516;13.318;2022-09-27T14:45:37;13.30;99.90
22185;DHT22;11258;52.516;13.318;2022-09-27T14:48:26;13.40;99.90
22185;DHT22;11258;52.516;13.318;2022-09-27T14:53:29;13.30;99.90
22185;DHT22;11258;52.516;13.318;2022-09-27T14:55:55;13.30;99.90
22185;DHT22;11258;52.516;13.318;2022-09-27T14:58:21;13.30;99.90
22185;DHT22;11258;52.516;13.318;2022-09-27T15:00:48;13.20;99.90
22185;DHT22;11258;52.516;13.318;2022-09-27T15:03:29;13.30;99.90
22185;DHT22;11258;52.516;13.318;2022-09-27T15:05:56;13.30;99.90
22185;DHT22;11258;52.516;13.318;2022-09-27T15:08:26;13.30;99.90
22185;DHT22;11258;52.516;13.318;2022-09-27T15:10:52;13.10;99.90
22185;DHT22;11258;52.516;13.318;2022-09-27T15:13:19;13.20;99.90
22185;DHT22;11258;52.516;13.318;2022-09-27T15:15:45;13.20;99.90
22185;DHT22;11258;52.516;13.318;2022-09-27T15:18:32;13.30;99.90
22185;DHT22;11258;52.516;13.318;2022-09-27T15:20:57;13.20;99.90
22185;DHT22;11258;52.516;13.318;2022-09-27T15:23:29;13.20;99.90
22185;DHT22;11258;52.516;13.318;2022-09-27T15:28:36;13.20;99.90
22185;DHT22;11258;52.516;13.318;2022-09-27T15:31:04;13.20;99.90
22185;DHT22;11258;52.516;13.318;2022-09-27T15:33:32;13.20;99.90
22185;DHT22;11258;52.516;13.318;2022-09-27T15:36:01;13.30;99.90
22185;DHT22;11258;52.516;13.318;2022-09-27T15:38:28;13.20;99.90
22185;DHT22;11258;52.516;13.318;2022-09-27T15:41:02;13.20;99.90
22185;DHT22;11258;52.516;13.318;2022-09-27T15:43:43;13.20;99.90
22185;DHT22;11258;52.516;13.318;2022-09-27T15:46:36;13.20;99.90
22185;DHT22;11258;52.516;13.318;2022-09-27T15:51:44;13.10;99.90
22185;DHT22;11258;52.516;13.318;2022-09-27T15:54:10;13.10;99.90
22185;DHT22;11258;52.516;13.318;2022-09-27T15:56:39;13.10;99.90
22185;DHT22;11258;52.516;13.318;2022-09-27T15:59:06;12.60;99.90
22185;DHT22;11258;52.516;13.318;2022-09-27T16:01:36;12.50;99.90
22185;DHT22;11258;52.516;13.318;2022-09-27T16:04:02;12.50;99.90
22185;DHT22;11258;52.516;13.318;2022-09-27T16:06:28;12.50;99.90
22185;DHT22;11258;52.516;13.318;2022-09-27T16:08:53;12.30;99.90
22185;DHT22;11258;52.516;13.318;2022-09-27T16:11:19;12.20;99.90
22185;DHT22;11258;52.516;13.318;2022-09-27T16:13:45;12.10;99.90
22185;DHT22;11258;52.516;13.318;2022-09-27T16:16:15;12.20;99.90
22185;DHT22;11258;52.516;13.318;2022-09-27T16:18:43;12.30;99.90
22185;DHT22;11258;52.516;13.318;2022-09-27T16:21:09;12.30;99.90
22185;DHT22;11258;52.516;13.318;2022-09-27T16:23:34;12.50;99.90
22185;DHT22;11258;52.516;13.318;2022-09-27T16:26:00;12.50;99.90
22185;DHT22;11258;52.516;13.318;2022-09-27T16:28:25;12.60;99.90
22185;DHT22;11258;52.516;13.318;2022-09-27T16:30:51;12.60;99.90
22185;DHT22;11258;52.516;13.318;2022-09-27T16:33:17;12.60;99.90
22185;DHT22;11258;52.516;13.318;2022-09-27T16:35:42;12.50;99.90
22185;DHT22;11258;52.516;13.318;2022-09-27T16:38:08;12.60;99.90
22185;DHT22;11258;52.516;13.318;2022-09-27T16:40:35;12.40;99.90
22185;DHT22;11258;52.516;13.318;2022-09-27T16:43:01;12.40;99.90
22185;DHT22;11258;52.516;13.318;2022-09-27T16:45:34;12.40;99.90
22185;DHT22;11258;52.516;13.318;2022-09-27T16:48:00;12.40;99.90
22185;DHT22;11258;52.516;13.318;2022-09-27T16:50:26;12.30;99.90
22185;DHT22;11258;52.516;13.318;2022-09-27T16:53:10;12.30;99.90
22185;DHT22;11258;52.516;13.318;2022-09-27T16:55:37;12.30;99.90
22185;DHT22;11258;52.516;13.318;2022-09-27T16:58:03;12.20;99.90
22185;DHT22;11258;52.516;13.318;2022-09-27T17:00:30;12.00;99.90
22185;DHT22;11258;52.516;13.318;2022-09-27T17:02:57;12.00;99.90
22185;DHT22;11258;52.516;13.318;2022-09-27T17:05:23;12.00;99.90
22185;DHT22;11258;52.516;13.318;2022-09-27T17:07:51;11.80;99.90
22185;DHT22;11258;52.516;13.318;2022-09-27T17:10:20;11.80;99.90
22185;DHT22;11258;52.516;13.318;2022-09-27T17:12:47;11.90;99.90
22185;DHT22;11258;52.516;13.318;2022-09-27T17:15:14;11.80;99.90
22185;DHT22;11258;52.516;13.318;2022-09-27T17:17:40;11.70;99.90
22185;DHT22;11258;52.516;13.318;2022-09-27T17:20:06;11.70;99.90
22185;DHT22;11258;52.516;13.318;2022-09-27T17:22:31;11.70;99.90
22185;DHT22;11258;52.516;13.318;2022-09-27T17:24:57;11.70;99.90
22185;DHT22;11258;52.516;13.318;2022-09-27T17:27:23;11.70;99.90
22185;DHT22;11258;52.516;13.318;2022-09-27T17:29:53;11.70;99.90
22185;DHT22;11258;52.516;13.318;2022-09-27T17:32:18;11.80;99.90
22185;DHT22;11258;52.516;13.318;2022-09-27T17:34:49;11.80;99.90
22185;DHT22;11258;52.516;13.318;2022-09-27T17:37:15;11.70;99.90
22185;DHT22;11258;52.516;13.318;2022-09-27T17:39:41;11.70;99.90
22185;DHT22;11258;52.516;13.318;2022-09-27T17:42:06;11.70;99.90
22185;DHT22;11258;52.516;13.318;2022-09-27T17:44:32;11.70;99.90
22185;DHT22;11258;52.516;13.318;2022-09-27T17:46:57;11.70;99.90
22185;DHT22;11258;52.516;13.318;2022-09-27T17:49:41;11.70;99.90
22185;DHT22;11258;52.516;13.318;2022-09-27T17:52:26;11.70;99.90
22185;DHT22;11258;52.516;13.318;2022-09-27T17:54:52;11.70;99.90
22185;DHT22;11258;52.516;13.318;2022-09-27T17:57:20;11.70;99.90
22185;DHT22;11258;52.516;13.318;2022-09-27T17:59:46;11.70;99.90
22185;DHT22;11258;52.516;13.318;2022-09-27T18:02:11;11.70;99.90
22185;DHT22;11258;52.516;13.318;2022-09-27T18:04:37;11.70;99.90
22185;DHT22;11258;52.516;13.318;2022-09-27T18:07:02;11.70;99.90
22185;DHT22;11258;52.516;13.318;2022-09-27T18:09:28;11.60;99.90
22185;DHT22;11258;52.516;13.318;2022-09-27T18:11:53;11.60;99.90
22185;DHT22;11258;52.516;13.318;2022-09-27T18:14:21;11.60;99.90
22185;DHT22;11258;52.516;13.318;2022-09-27T18:16:47;11.60;99.90
22185;DHT22;11258;52.516;13.318;2022-09-27T18:19:15;11.60;99.90
22185;DHT22;11258;52.516;13.318;2022-09-27T18:21:41;11.60;99.90